createdAt,value
2022-12-29T00:00:21.523Z,87.71
2022-12-29T00:01:20.470Z,87.51
2022-12-29T00:02:20.503Z,87.40
2022-12-29T00:03:20.557Z,87.40
2022-12-29T00:04:20.460Z,87.40
2022-12-29T00:05:20.471Z,87.51
2022-12-29T00:06:20.448Z,87.51
2022-12-29T00:07:20.459Z,87.40
2022-12-29T00:08:20.437Z,87.61
2022-12-29T00:09:20.412Z,87.71
2022-12-29T00:10:20.406Z,87.61
2022-12-29T00:11:20.404Z,87.61
2022-12-29T00:12:20.417Z,87.71
2022-12-29T00:13:20.508Z,88.02
2022-12-29T00:14:25.877Z,87.82
2022-12-29T00:15:22.399Z,87.71
2022-12-29T00:16:20.515Z,87.67
2022-12-29T00:17:20.407Z,87.82
2022-12-29T00:18:20.409Z,87.82
2022-12-29T00:19:20.385Z,87.71
2022-12-29T00:20:20.396Z,87.82
2022-12-29T00:21:20.362Z,87.61
2022-12-29T00:22:20.361Z,87.82
2022-12-29T00:23:20.348Z,87.77
2022-12-29T00:24:20.354Z,87.46
2022-12-29T00:25:20.372Z,87.46
2022-12-29T00:26:20.331Z,87.26
2022-12-29T00:27:20.326Z,88.33
2022-12-29T00:28:20.344Z,87.57
2022-12-29T00:29:20.372Z,87.51
2022-12-29T00:30:20.362Z,88.29
2022-12-29T00:31:20.391Z,88.29
2022-12-29T00:32:20.315Z,87.37
2022-12-29T00:33:20.488Z,88.49
2022-12-29T00:34:20.341Z,87.67
2022-12-29T00:35:20.353Z,87.67
2022-12-29T00:36:20.352Z,87.46
2022-12-29T00:37:20.863Z,87.46
2022-12-29T00:38:20.284Z,87.46
2022-12-29T00:39:20.389Z,88.29
2022-12-29T00:40:20.273Z,88.29
2022-12-29T00:41:20.558Z,87.98
2022-12-29T00:42:20.361Z,88.08
2022-12-29T00:43:20.326Z,87.98
2022-12-29T00:44:20.259Z,88.29
2022-12-29T00:45:20.278Z,87.63
2022-12-29T00:46:20.524Z,87.57
2022-12-29T00:47:20.308Z,87.77
2022-12-29T00:48:20.235Z,87.84
2022-12-29T00:49:20.245Z,87.73
2022-12-29T00:50:20.429Z,87.43
2022-12-29T00:51:20.260Z,87.22
2022-12-29T00:52:20.240Z,87.73
2022-12-29T00:53:20.219Z,87.53
2022-12-29T00:54:20.215Z,87.67
2022-12-29T00:55:20.220Z,87.73
2022-12-29T00:56:20.217Z,87.84
2022-12-29T00:57:20.209Z,87.43
2022-12-29T00:58:20.190Z,87.73
2022-12-29T00:59:20.206Z,87.53
2022-12-29T01:00:20.177Z,87.63
2022-12-29T01:01:20.235Z,87.73
2022-12-29T01:02:20.327Z,87.63
2022-12-29T01:03:20.274Z,87.43
2022-12-29T01:04:20.202Z,87.94
2022-12-29T01:05:20.176Z,87.43
2022-12-29T01:06:20.274Z,87.43
2022-12-29T01:07:20.157Z,87.63
2022-12-29T01:08:20.168Z,87.32
2022-12-29T01:09:20.343Z,88.24
2022-12-29T01:10:20.173Z,87.94
2022-12-29T01:11:20.156Z,88.04
2022-12-29T01:12:20.151Z,88.04
2022-12-29T01:13:20.110Z,87.94
2022-12-29T01:14:20.208Z,87.94
2022-12-29T01:15:20.135Z,87.84
2022-12-29T01:16:20.279Z,88.04
2022-12-29T01:17:20.105Z,88.04
2022-12-29T01:18:20.105Z,88.04
2022-12-29T01:19:20.093Z,87.73
2022-12-29T01:20:20.142Z,88.04
2022-12-29T01:21:20.068Z,88.66
2022-12-29T01:22:20.098Z,88.04
2022-12-29T01:23:20.082Z,88.35
2022-12-29T01:24:20.072Z,88.04
2022-12-29T01:25:20.095Z,88.04
2022-12-29T01:26:20.051Z,88.14
2022-12-29T01:27:20.057Z,88.24
2022-12-29T01:28:25.782Z,87.73
2022-12-29T01:29:22.044Z,88.56
2022-12-29T01:30:20.065Z,87.84
2022-12-29T01:31:20.101Z,88.35
2022-12-29T01:32:20.023Z,88.35
2022-12-29T01:33:20.039Z,88.66
2022-12-29T01:34:21.078Z,88.86
2022-12-29T01:35:20.003Z,88.24
2022-12-29T01:36:20.005Z,88.62
2022-12-29T01:37:20.001Z,88.56
2022-12-29T01:38:20.039Z,88.86
2022-12-29T01:39:19.999Z,88.66
2022-12-29T01:40:20.008Z,89.07
2022-12-29T01:41:20.007Z,88.72
2022-12-29T01:42:20.040Z,88.51
2022-12-29T01:43:19.983Z,88.96
2022-12-29T01:44:19.993Z,88.76
2022-12-29T01:45:19.969Z,88.62
2022-12-29T01:46:20.081Z,89.23
2022-12-29T01:47:19.964Z,88.82
2022-12-29T01:48:21.017Z,89.17
2022-12-29T01:49:20.000Z,89.13
2022-12-29T01:50:19.990Z,89.13
2022-12-29T01:51:19.952Z,89.03
2022-12-29T01:52:19.975Z,88.10
2022-12-29T01:53:19.916Z,89.13
2022-12-29T01:54:19.941Z,89.58
2022-12-29T01:55:19.949Z,89.03
2022-12-29T01:56:19.919Z,89.23
2022-12-29T01:57:19.885Z,89.37
2022-12-29T01:58:19.909Z,89.33
2022-12-29T01:59:19.919Z,89.33
2022-12-29T02:00:19.968Z,88.51
2022-12-29T02:01:20.030Z,89.13
2022-12-29T02:02:19.923Z,89.03
2022-12-29T02:03:20.009Z,89.03
2022-12-29T02:04:19.866Z,89.64
2022-12-29T02:05:19.914Z,89.13
2022-12-29T02:06:19.881Z,89.13
2022-12-29T02:07:19.874Z,89.13
2022-12-29T02:08:19.857Z,88.92
2022-12-29T02:09:19.855Z,89.23
2022-12-29T02:10:19.849Z,89.43
2022-12-29T02:11:19.861Z,89.33
2022-12-29T02:12:19.867Z,89.23
2022-12-29T02:13:19.910Z,89.43
2022-12-29T02:14:19.809Z,89.33
2022-12-29T02:15:19.828Z,89.95
2022-12-29T02:16:19.893Z,89.75
2022-12-29T02:17:19.875Z,89.95
2022-12-29T02:18:19.852Z,89.75
2022-12-29T02:19:19.799Z,90.46
2022-12-29T02:20:19.794Z,90.67
2022-12-29T02:21:19.791Z,90.67
2022-12-29T02:22:19.788Z,91.08
2022-12-29T02:23:19.789Z,91.28
2022-12-29T02:24:19.809Z,91.28
2022-12-29T02:25:19.825Z,91.80
2022-12-29T02:26:19.789Z,92.10
2022-12-29T02:27:19.786Z,91.90
2022-12-29T02:28:19.787Z,91.94
2022-12-29T02:29:19.832Z,91.80
2022-12-29T02:30:19.759Z,91.69
2022-12-29T02:31:19.748Z,91.90
2022-12-29T02:32:19.756Z,91.69
2022-12-29T02:33:19.752Z,91.90
2022-12-29T02:34:19.738Z,91.80
2022-12-29T02:35:19.708Z,92.00
2022-12-29T02:36:20.673Z,92.21
2022-12-29T02:37:19.735Z,92.21
2022-12-29T02:38:19.700Z,92.00
2022-12-29T02:39:19.722Z,91.80
2022-12-29T02:40:19.692Z,91.90
2022-12-29T02:41:19.753Z,92.00
2022-12-29T02:42:19.814Z,91.69
2022-12-29T02:43:19.674Z,92.00
2022-12-29T02:44:19.761Z,91.35
2022-12-29T02:45:19.659Z,91.59
2022-12-29T02:46:19.700Z,91.35
2022-12-29T02:47:19.683Z,91.49
2022-12-29T02:48:19.644Z,91.44
2022-12-29T02:49:19.773Z,91.35
2022-12-29T02:50:19.650Z,91.24
2022-12-29T02:51:19.653Z,91.14
2022-12-29T02:52:19.614Z,91.35
2022-12-29T02:53:19.615Z,91.24
2022-12-29T02:54:19.649Z,91.03
2022-12-29T02:55:19.639Z,91.24
2022-12-29T02:56:19.602Z,91.35
2022-12-29T02:57:19.595Z,90.83
2022-12-29T02:58:19.580Z,90.93
2022-12-29T02:59:19.578Z,91.03
2022-12-29T03:00:19.605Z,90.62
2022-12-29T03:01:20.026Z,90.79
2022-12-29T03:02:19.743Z,90.22
2022-12-29T03:03:19.656Z,90.17
2022-12-29T03:04:19.575Z,90.17
2022-12-29T03:05:19.586Z,90.17
2022-12-29T03:06:19.561Z,90.28
2022-12-29T03:07:19.524Z,90.07
2022-12-29T03:08:19.537Z,89.56
2022-12-29T03:09:19.581Z,89.76
2022-12-29T03:10:19.536Z,90.17
2022-12-29T03:11:19.556Z,89.87
2022-12-29T03:12:19.501Z,89.76
2022-12-29T03:13:19.499Z,89.83
2022-12-29T03:14:19.493Z,89.83
2022-12-29T03:15:19.487Z,89.66
2022-12-29T03:16:19.556Z,89.36
2022-12-29T03:17:19.486Z,89.15
2022-12-29T03:18:19.469Z,89.25
2022-12-29T03:19:19.487Z,89.15
2022-12-29T03:20:19.461Z,88.70
2022-12-29T03:21:19.534Z,88.84
2022-12-29T03:22:19.496Z,88.80
2022-12-29T03:23:19.467Z,88.70
2022-12-29T03:24:19.553Z,88.74
2022-12-29T03:25:19.536Z,88.70
2022-12-29T03:26:19.473Z,88.94
2022-12-29T03:27:19.445Z,89.11
2022-12-29T03:28:19.469Z,89.42
2022-12-29T03:29:19.452Z,89.42
2022-12-29T03:30:19.419Z,89.11
2022-12-29T03:31:19.468Z,89.21
2022-12-29T03:32:19.450Z,89.21
2022-12-29T03:33:19.403Z,89.00
2022-12-29T03:34:19.406Z,89.21
2022-12-29T03:35:19.394Z,89.62
2022-12-29T03:36:19.400Z,89.42
2022-12-29T03:37:19.431Z,89.51
2022-12-29T03:38:19.395Z,89.42
2022-12-29T03:39:19.373Z,89.51
2022-12-29T03:40:19.364Z,89.31
2022-12-29T03:41:19.343Z,89.62
2022-12-29T03:42:19.373Z,89.51
2022-12-29T03:43:19.389Z,89.72
2022-12-29T03:44:19.329Z,89.72
2022-12-29T03:45:19.363Z,89.21
2022-12-29T03:46:19.358Z,89.31
2022-12-29T03:47:19.305Z,89.11
2022-12-29T03:48:19.311Z,89.31
2022-12-29T03:49:19.323Z,89.17
2022-12-29T03:50:19.344Z,88.76
2022-12-29T03:51:19.301Z,89.17
2022-12-29T03:52:19.278Z,89.17
2022-12-29T03:53:19.287Z,89.78
2022-12-29T03:54:19.280Z,89.58
2022-12-29T03:55:19.378Z,89.68
2022-12-29T03:56:19.262Z,89.68
2022-12-29T03:57:19.250Z,89.78
2022-12-29T03:58:19.263Z,90.09
2022-12-29T03:59:19.251Z,89.68
2022-12-29T04:00:19.271Z,89.89
2022-12-29T04:01:19.351Z,89.47
2022-12-29T04:02:19.364Z,89.58
2022-12-29T04:03:19.271Z,89.58
2022-12-29T04:04:19.227Z,89.37
2022-12-29T04:05:19.264Z,89.58
2022-12-29T04:06:19.210Z,89.37
2022-12-29T04:07:19.201Z,89.37
2022-12-29T04:08:19.212Z,89.27
2022-12-29T04:09:19.210Z,89.17
2022-12-29T04:10:19.239Z,89.06
2022-12-29T04:11:19.185Z,89.17
2022-12-29T04:12:19.170Z,88.96
2022-12-29T04:13:19.194Z,89.27
2022-12-29T04:14:19.167Z,89.47
2022-12-29T04:15:19.185Z,88.76
2022-12-29T04:16:19.285Z,88.76
2022-12-29T04:17:19.168Z,88.76
2022-12-29T04:18:19.168Z,89.37
2022-12-29T04:19:19.143Z,89.37
2022-12-29T04:20:19.139Z,89.58
2022-12-29T04:21:19.166Z,89.47
2022-12-29T04:22:19.137Z,88.96
2022-12-29T04:23:19.123Z,89.27
2022-12-29T04:24:19.135Z,89.06
2022-12-29T04:25:19.104Z,88.51
2022-12-29T04:26:19.128Z,89.06
2022-12-29T04:27:19.139Z,88.86
2022-12-29T04:28:19.138Z,88.71
2022-12-29T04:29:19.086Z,88.24
2022-12-29T04:30:19.097Z,89.12
2022-12-29T04:31:19.230Z,88.82
2022-12-29T04:32:19.110Z,89.06
2022-12-29T04:33:19.088Z,88.96
2022-12-29T04:34:19.064Z,88.31
2022-12-29T04:35:19.070Z,88.65
2022-12-29T04:36:19.049Z,88.24
2022-12-29T04:37:19.113Z,88.86
2022-12-29T04:38:19.053Z,89.27
2022-12-29T04:39:19.052Z,89.27
2022-12-29T04:40:19.052Z,90.09
2022-12-29T04:41:19.035Z,89.27
2022-12-29T04:42:19.064Z,89.78
2022-12-29T04:43:19.025Z,90.81
2022-12-29T04:44:19.019Z,90.39
2022-12-29T04:45:19.011Z,90.54
2022-12-29T04:46:19.057Z,90.84
2022-12-29T04:47:18.996Z,90.84
2022-12-29T04:48:19.016Z,90.64
2022-12-29T04:49:19.024Z,90.91
2022-12-29T04:50:18.978Z,90.84
2022-12-29T04:51:18.988Z,90.75
2022-12-29T04:52:20.000Z,91.05
2022-12-29T04:53:18.954Z,90.75
2022-12-29T04:54:18.999Z,90.84
2022-12-29T04:55:18.966Z,90.95
2022-12-29T04:56:18.979Z,90.54
2022-12-29T04:57:18.951Z,90.75
2022-12-29T04:58:22.594Z,90.64
2022-12-29T04:59:19.978Z,90.23
2022-12-29T05:00:18.959Z,90.13
2022-12-29T05:01:18.969Z,89.92
2022-12-29T05:02:19.026Z,89.62
2022-12-29T05:03:19.107Z,89.58
2022-12-29T05:04:18.939Z,89.37
2022-12-29T05:05:18.945Z,89.47
2022-12-29T05:06:18.890Z,89.47
2022-12-29T05:07:18.893Z,89.58
2022-12-29T05:08:24.672Z,89.58
2022-12-29T05:09:20.879Z,89.58
2022-12-29T05:10:18.899Z,89.17
2022-12-29T05:11:18.931Z,89.37
2022-12-29T05:12:18.874Z,89.58
2022-12-29T05:13:18.875Z,89.27
2022-12-29T05:14:18.892Z,89.31
2022-12-29T05:15:18.874Z,89.89
2022-12-29T05:16:18.885Z,89.68
2022-12-29T05:17:18.842Z,90.23
2022-12-29T05:18:19.900Z,90.19
2022-12-29T05:19:19.499Z,90.50
2022-12-29T05:20:18.851Z,90.39
2022-12-29T05:21:18.810Z,90.30
2022-12-29T05:22:18.825Z,90.91
2022-12-29T05:23:18.839Z,90.75
2022-12-29T05:24:18.806Z,91.52
2022-12-29T05:25:18.827Z,91.16
2022-12-29T05:26:18.783Z,91.16
2022-12-29T05:27:18.888Z,91.77
2022-12-29T05:28:18.781Z,91.56
2022-12-29T05:29:18.783Z,91.77
2022-12-29T05:30:18.831Z,91.87
2022-12-29T05:31:18.831Z,91.97
2022-12-29T05:32:18.790Z,92.08
2022-12-29T05:33:18.758Z,92.49
2022-12-29T05:34:18.736Z,92.69
2022-12-29T05:35:18.776Z,92.69
2022-12-29T05:36:18.724Z,93.00
2022-12-29T05:37:18.708Z,93.20
2022-12-29T05:38:18.711Z,93.00
2022-12-29T05:39:18.739Z,93.20
2022-12-29T05:40:18.737Z,93.41
2022-12-29T05:41:18.748Z,93.41
2022-12-29T05:42:18.712Z,93.30
2022-12-29T05:43:18.810Z,93.41
2022-12-29T05:44:18.696Z,93.41
2022-12-29T05:45:18.686Z,93.62
2022-12-29T05:46:18.736Z,93.92
2022-12-29T05:47:18.687Z,93.71
2022-12-29T05:48:18.706Z,93.82
2022-12-29T05:49:18.705Z,93.82
2022-12-29T05:50:18.640Z,93.92
2022-12-29T05:51:18.682Z,93.96
2022-12-29T05:52:18.634Z,94.48
2022-12-29T05:53:18.648Z,94.02
2022-12-29T05:54:18.668Z,94.27
2022-12-29T05:55:18.695Z,94.27
2022-12-29T05:56:18.619Z,94.48
2022-12-29T05:57:18.629Z,94.78
2022-12-29T05:58:18.618Z,94.07
2022-12-29T05:59:18.637Z,94.89
2022-12-29T06:00:18.625Z,94.99
2022-12-29T06:01:18.732Z,95.29
2022-12-29T06:02:18.796Z,95.50
2022-12-29T06:03:18.762Z,95.20
2022-12-29T06:04:18.588Z,94.68
2022-12-29T06:05:18.564Z,94.68
2022-12-29T06:06:18.572Z,94.93
2022-12-29T06:07:18.558Z,95.20
2022-12-29T06:08:18.559Z,95.29
2022-12-29T06:09:18.587Z,95.70
2022-12-29T06:10:18.542Z,95.91
2022-12-29T06:11:18.572Z,96.06
2022-12-29T06:12:18.536Z,96.16
2022-12-29T06:13:18.522Z,96.01
2022-12-29T06:14:18.559Z,95.95
2022-12-29T06:15:18.561Z,96.01
2022-12-29T06:16:18.563Z,96.53
2022-12-29T06:17:18.544Z,96.47
2022-12-29T06:18:20.261Z,96.57
2022-12-29T06:19:19.497Z,96.78
2022-12-29T06:20:18.491Z,96.78
2022-12-29T06:21:18.505Z,96.88
2022-12-29T06:22:18.498Z,96.67
2022-12-29T06:23:18.484Z,96.78
2022-12-29T06:24:18.472Z,96.67
2022-12-29T06:25:18.516Z,96.78
2022-12-29T06:26:18.479Z,96.78
2022-12-29T06:27:18.466Z,96.73
2022-12-29T06:28:18.467Z,96.37
2022-12-29T06:29:18.503Z,96.47
2022-12-29T06:30:18.482Z,96.47
2022-12-29T06:31:18.508Z,96.88
2022-12-29T06:32:18.440Z,96.98
2022-12-29T06:33:18.470Z,96.42
2022-12-29T06:34:18.420Z,96.47
2022-12-29T06:35:18.435Z,96.88
2022-12-29T06:36:18.505Z,96.78
2022-12-29T06:37:18.425Z,96.47
2022-12-29T06:38:18.433Z,96.37
2022-12-29T06:39:18.410Z,96.57
2022-12-29T06:40:18.416Z,96.78
2022-12-29T06:41:18.406Z,96.57
2022-12-29T06:42:18.476Z,96.26
2022-12-29T06:43:18.421Z,96.78
2022-12-29T06:44:18.386Z,96.78
2022-12-29T06:45:18.402Z,96.16
2022-12-29T06:46:18.404Z,96.06
2022-12-29T06:47:18.397Z,96.16
2022-12-29T06:48:18.370Z,96.06
2022-12-29T06:49:18.377Z,96.16
2022-12-29T06:50:18.340Z,96.16
2022-12-29T06:51:18.336Z,96.16
2022-12-29T06:52:18.357Z,96.16
2022-12-29T06:53:18.324Z,96.06
2022-12-29T06:54:18.357Z,96.06
2022-12-29T06:55:18.324Z,96.26
2022-12-29T06:56:18.359Z,96.26
2022-12-29T06:57:18.309Z,96.16
2022-12-29T06:58:18.318Z,96.26
2022-12-29T06:59:18.307Z,96.06
2022-12-29T07:00:22.773Z,95.95
2022-12-29T07:01:19.461Z,96.78
2022-12-29T07:02:18.395Z,96.78
2022-12-29T07:03:18.407Z,96.67
2022-12-29T07:04:18.269Z,96.67
2022-12-29T07:05:18.324Z,96.57
2022-12-29T07:06:18.251Z,96.26
2022-12-29T07:07:18.257Z,96.26
2022-12-29T07:08:18.312Z,96.47
2022-12-29T07:09:18.235Z,96.37
2022-12-29T07:10:18.230Z,96.16
2022-12-29T07:11:18.280Z,96.57
2022-12-29T07:12:18.233Z,96.67
2022-12-29T07:13:18.262Z,96.57
2022-12-29T07:14:18.213Z,96.67
2022-12-29T07:15:18.240Z,96.57
2022-12-29T07:16:18.234Z,96.67
2022-12-29T07:17:18.205Z,96.37
2022-12-29T07:18:18.204Z,96.57
2022-12-29T07:19:18.207Z,96.47
2022-12-29T07:20:23.209Z,96.47
2022-12-29T07:21:20.187Z,96.26
2022-12-29T07:22:18.175Z,96.78
2022-12-29T07:23:18.164Z,96.67
2022-12-29T07:24:18.210Z,97.08
2022-12-29T07:25:18.151Z,96.78
2022-12-29T07:26:18.167Z,97.29
2022-12-29T07:27:18.140Z,97.08
2022-12-29T07:28:18.193Z,96.88
2022-12-29T07:29:18.160Z,97.19
2022-12-29T07:30:19.131Z,97.08
2022-12-29T07:31:18.212Z,97.08
2022-12-29T07:32:18.224Z,96.78
2022-12-29T07:33:19.140Z,96.57
2022-12-29T07:34:18.152Z,96.57
2022-12-29T07:35:18.131Z,96.83
2022-12-29T07:36:18.139Z,96.78
2022-12-29T07:37:18.100Z,96.94
2022-12-29T07:38:18.129Z,96.78
2022-12-29T07:39:18.108Z,97.19
2022-12-29T07:40:18.120Z,96.83
2022-12-29T07:41:18.119Z,97.19
2022-12-29T07:42:18.082Z,97.14
2022-12-29T07:43:18.060Z,97.29
2022-12-29T07:44:18.069Z,97.65
2022-12-29T07:45:18.046Z,97.24
2022-12-29T07:46:56.437Z,97.24
2022-12-29T07:47:20.076Z,97.14
2022-12-29T07:48:18.037Z,97.24
2022-12-29T07:49:18.027Z,97.29
2022-12-29T07:50:19.076Z,97.29
2022-12-29T07:51:18.009Z,97.19
2022-12-29T07:52:18.057Z,97.55
2022-12-29T07:53:18.049Z,97.70
2022-12-29T07:54:17.996Z,97.75
2022-12-29T07:55:18.023Z,97.80
2022-12-29T07:56:17.989Z,97.80
2022-12-29T07:57:17.999Z,97.80
2022-12-29T07:58:18.055Z,97.86
2022-12-29T07:59:17.980Z,97.65
2022-12-29T08:00:17.999Z,98.21
2022-12-29T08:01:18.157Z,97.80
2022-12-29T08:02:18.115Z,97.91
2022-12-29T08:03:18.000Z,97.49
2022-12-29T08:04:18.012Z,97.70
2022-12-29T08:05:18.087Z,97.70
2022-12-29T08:06:17.946Z,97.60
2022-12-29T08:07:17.967Z,97.65
2022-12-29T08:08:17.912Z,97.70
2022-12-29T08:09:22.427Z,97.86
2022-12-29T08:10:19.938Z,97.65
2022-12-29T08:11:17.905Z,97.80
2022-12-29T08:12:17.924Z,97.96
2022-12-29T08:13:18.014Z,97.91
2022-12-29T08:14:17.901Z,97.45
2022-12-29T08:15:17.885Z,97.45
2022-12-29T08:16:18.326Z,97.60
2022-12-29T08:17:17.879Z,97.49
2022-12-29T08:18:17.880Z,97.24
2022-12-29T08:19:17.884Z,96.83
2022-12-29T08:20:17.888Z,97.14
2022-12-29T08:21:18.002Z,96.22
2022-12-29T08:22:17.883Z,96.63
2022-12-29T08:23:17.867Z,96.73
2022-12-29T08:24:17.844Z,96.22
2022-12-29T08:25:17.870Z,96.12
2022-12-29T08:26:17.904Z,96.01
2022-12-29T08:27:20.665Z,96.12
2022-12-29T08:28:18.818Z,95.20
2022-12-29T08:29:17.827Z,95.40
2022-12-29T08:30:17.815Z,95.25
2022-12-29T08:31:17.853Z,95.36
2022-12-29T08:32:17.786Z,94.99
2022-12-29T08:33:17.783Z,95.05
2022-12-29T08:34:17.816Z,95.25
2022-12-29T08:35:17.798Z,94.84
2022-12-29T08:36:17.917Z,94.95
2022-12-29T08:37:17.782Z,94.84
2022-12-29T08:38:17.751Z,95.05
2022-12-29T08:39:17.731Z,94.54
2022-12-29T08:40:17.757Z,94.95
2022-12-29T08:41:17.743Z,95.46
2022-12-29T08:42:17.757Z,95.05
2022-12-29T08:43:18.714Z,94.84
2022-12-29T08:44:18.755Z,95.91
2022-12-29T08:45:17.807Z,96.17
2022-12-29T08:46:17.838Z,95.97
2022-12-29T08:47:17.697Z,96.58
2022-12-29T08:48:17.733Z,96.48
2022-12-29T08:49:17.753Z,96.58
2022-12-29T08:50:17.696Z,96.38
2022-12-29T08:51:22.834Z,96.69
2022-12-29T08:52:19.684Z,96.73
2022-12-29T08:53:17.770Z,96.58
2022-12-29T08:54:17.691Z,96.53
2022-12-29T08:55:17.677Z,96.28
2022-12-29T08:56:17.656Z,96.58
2022-12-29T08:57:17.762Z,96.28
2022-12-29T08:58:17.683Z,95.66
2022-12-29T08:59:17.654Z,96.07
2022-12-29T09:00:17.632Z,95.76
2022-12-29T09:01:17.727Z,95.97
2022-12-29T09:02:24.363Z,95.87
2022-12-29T09:03:37.823Z,95.05
2022-12-29T09:04:19.951Z,95.46
2022-12-29T09:05:17.680Z,95.36
2022-12-29T09:06:18.643Z,95.25
2022-12-29T09:07:17.643Z,94.95
2022-12-29T09:08:22.325Z,94.84
2022-12-29T09:09:19.610Z,94.95
2022-12-29T09:10:17.593Z,95.46
2022-12-29T09:11:17.572Z,95.36
2022-12-29T09:12:17.610Z,95.46
2022-12-29T09:13:17.630Z,95.66
2022-12-29T09:14:17.603Z,95.15
2022-12-29T09:15:17.537Z,95.05
2022-12-29T09:16:17.649Z,95.05
2022-12-29T09:17:17.660Z,95.05
2022-12-29T09:18:20.881Z,94.84
2022-12-29T09:19:18.539Z,94.95
2022-12-29T09:20:17.530Z,94.95
2022-12-29T09:21:17.541Z,95.31
2022-12-29T09:22:17.554Z,95.31
2022-12-29T09:23:17.563Z,94.84
2022-12-29T09:24:17.516Z,94.23
2022-12-29T09:25:17.574Z,93.82
2022-12-29T09:26:17.498Z,94.43
2022-12-29T09:27:17.496Z,94.18
2022-12-29T09:28:17.521Z,94.18
2022-12-29T09:29:17.482Z,93.88
2022-12-29T09:30:17.517Z,94.49
2022-12-29T09:31:17.569Z,94.02
2022-12-29T09:32:18.958Z,93.77
2022-12-29T09:33:18.480Z,94.12
2022-12-29T09:34:17.606Z,93.37
2022-12-29T09:35:17.499Z,93.88
2022-12-29T09:36:17.456Z,93.57
2022-12-29T09:37:17.436Z,93.47
2022-12-29T09:38:17.430Z,93.88
2022-12-29T09:39:17.465Z,94.29
2022-12-29T09:40:17.451Z,94.18
2022-12-29T09:41:17.418Z,93.98
2022-12-29T09:42:17.413Z,94.08
2022-12-29T09:43:17.391Z,93.57
2022-12-29T09:44:17.426Z,93.57
2022-12-29T09:45:17.422Z,93.57
2022-12-29T09:46:17.402Z,93.16
2022-12-29T09:47:17.395Z,93.37
2022-12-29T09:48:17.378Z,93.67
2022-12-29T09:49:17.412Z,92.96
2022-12-29T09:50:17.404Z,92.40
2022-12-29T09:51:17.375Z,92.44
2022-12-29T09:52:17.363Z,92.65
2022-12-29T09:53:17.333Z,92.65
2022-12-29T09:54:17.356Z,92.71
2022-12-29T09:55:17.338Z,92.50
2022-12-29T09:56:17.353Z,92.40
2022-12-29T09:57:17.351Z,91.99
2022-12-29T09:58:17.339Z,91.99
2022-12-29T09:59:17.345Z,91.83
2022-12-29T10:00:17.313Z,92.10
2022-12-29T10:01:17.545Z,91.99
2022-12-29T10:02:17.423Z,91.78
2022-12-29T10:03:17.473Z,91.69
2022-12-29T10:04:17.309Z,91.99
2022-12-29T10:05:17.277Z,91.99
2022-12-29T10:06:17.295Z,92.03
2022-12-29T10:07:29.481Z,92.10
2022-12-29T10:08:19.260Z,91.89
2022-12-29T10:09:17.293Z,91.99
2022-12-29T10:10:17.424Z,92.10
2022-12-29T10:11:17.556Z,91.78
2022-12-29T10:12:17.234Z,91.89
2022-12-29T10:13:17.232Z,91.78
2022-12-29T10:14:17.219Z,91.07
2022-12-29T10:15:17.224Z,91.27
2022-12-29T10:16:17.267Z,90.66
2022-12-29T10:17:17.191Z,90.56
2022-12-29T10:18:17.181Z,90.92
2022-12-29T10:19:17.207Z,91.13
2022-12-29T10:20:17.199Z,90.86
2022-12-29T10:21:17.199Z,90.31
2022-12-29T10:22:17.164Z,90.31
2022-12-29T10:23:17.179Z,89.80
2022-12-29T10:24:17.241Z,90.11
2022-12-29T10:25:17.187Z,89.90
2022-12-29T10:26:17.143Z,89.70
2022-12-29T10:27:17.133Z,89.90
2022-12-29T10:28:17.120Z,90.11
2022-12-29T10:29:17.136Z,89.43
2022-12-29T10:30:17.119Z,88.82
2022-12-29T10:31:17.149Z,88.31
2022-12-29T10:32:17.131Z,88.82
2022-12-29T10:33:17.095Z,89.12
2022-12-29T10:34:17.117Z,88.00
2022-12-29T10:35:17.107Z,88.62
2022-12-29T10:36:17.065Z,88.51
2022-12-29T10:37:17.089Z,88.51
2022-12-29T10:38:17.083Z,88.57
2022-12-29T10:39:17.067Z,87.49
2022-12-29T10:40:17.113Z,88.51
2022-12-29T10:41:17.085Z,88.41
2022-12-29T10:42:17.124Z,88.71
2022-12-29T10:43:21.131Z,88.82
2022-12-29T10:44:18.047Z,88.92
2022-12-29T10:45:17.033Z,88.20
2022-12-29T10:46:17.104Z,88.62
2022-12-29T10:47:17.025Z,87.90
2022-12-29T10:48:16.998Z,88.71
2022-12-29T10:49:21.584Z,88.92
2022-12-29T10:50:18.986Z,88.51
2022-12-29T10:51:16.969Z,88.20
2022-12-29T10:52:17.014Z,88.20
2022-12-29T10:53:16.966Z,89.33
2022-12-29T10:54:16.960Z,88.00
2022-12-29T10:55:16.967Z,88.92
2022-12-29T10:56:17.080Z,88.92
2022-12-29T10:57:16.964Z,88.41
2022-12-29T10:58:16.959Z,87.90
2022-12-29T10:59:16.969Z,87.18
2022-12-29T11:00:17.048Z,87.70
2022-12-29T11:01:16.970Z,88.00
2022-12-29T11:02:17.061Z,87.38
2022-12-29T11:03:16.962Z,88.20
2022-12-29T11:04:16.894Z,87.38
2022-12-29T11:05:16.924Z,87.90
2022-12-29T11:06:16.884Z,87.49
2022-12-29T11:07:18.122Z,87.24
2022-12-29T11:08:16.856Z,88.20
2022-12-29T11:09:16.905Z,87.24
2022-12-29T11:10:16.908Z,86.94
2022-12-29T11:11:16.845Z,86.77
2022-12-29T11:12:16.876Z,87.14
2022-12-29T11:13:16.868Z,87.24
2022-12-29T11:14:16.868Z,86.94
2022-12-29T11:15:16.843Z,87.08
2022-12-29T11:16:16.939Z,87.29
2022-12-29T11:17:16.811Z,87.45
2022-12-29T11:18:16.807Z,87.45
2022-12-29T11:19:16.866Z,87.45
2022-12-29T11:20:16.777Z,87.04
2022-12-29T11:21:17.806Z,87.24
2022-12-29T11:22:16.795Z,87.24
2022-12-29T11:23:16.770Z,87.35
2022-12-29T11:24:16.815Z,87.14
2022-12-29T11:25:16.943Z,86.67
2022-12-29T11:26:16.760Z,86.02
2022-12-29T11:27:16.791Z,86.12
2022-12-29T11:28:16.762Z,86.83
2022-12-29T11:29:16.775Z,86.53
2022-12-29T11:30:16.763Z,85.10
2022-12-29T11:31:16.909Z,85.30
2022-12-29T11:32:16.828Z,85.50
2022-12-29T11:33:16.716Z,85.10
2022-12-29T11:34:16.715Z,86.02
2022-12-29T11:35:16.716Z,85.30
2022-12-29T11:36:16.727Z,85.30
2022-12-29T11:37:16.696Z,85.30
2022-12-29T11:38:16.701Z,85.20
2022-12-29T11:39:16.681Z,85.40
2022-12-29T11:40:16.717Z,85.40
2022-12-29T11:41:16.833Z,85.20
2022-12-29T11:42:16.659Z,85.10
2022-12-29T11:43:16.677Z,84.99
2022-12-29T11:44:16.643Z,84.79
2022-12-29T11:45:16.694Z,85.10
2022-12-29T11:46:16.703Z,85.26
2022-12-29T11:47:16.612Z,85.30
2022-12-29T11:48:16.631Z,84.99
2022-12-29T11:49:16.613Z,85.40
2022-12-29T11:50:16.773Z,85.10
2022-12-29T11:51:20.410Z,85.20
2022-12-29T11:52:18.595Z,84.95
2022-12-29T11:53:16.600Z,85.16
2022-12-29T11:54:16.568Z,85.30
2022-12-29T11:55:16.568Z,85.36
2022-12-29T11:56:16.603Z,84.95
2022-12-29T11:57:16.567Z,85.36
2022-12-29T11:58:16.557Z,85.36
2022-12-29T11:59:16.578Z,85.36
2022-12-29T12:00:16.548Z,85.26
2022-12-29T12:01:16.555Z,84.95
2022-12-29T12:02:16.727Z,84.95
2022-12-29T12:03:16.612Z,84.85
2022-12-29T12:04:16.632Z,85.06
2022-12-29T12:05:16.501Z,84.24
2022-12-29T12:06:16.540Z,84.75
2022-12-29T12:07:16.532Z,84.95
2022-12-29T12:08:20.694Z,84.89
2022-12-29T12:09:17.493Z,84.85
2022-12-29T12:10:16.474Z,84.28
2022-12-29T12:11:16.487Z,84.65
2022-12-29T12:12:16.470Z,84.65
2022-12-29T12:13:16.562Z,84.48
2022-12-29T12:14:16.442Z,84.44
2022-12-29T12:15:16.459Z,84.89
2022-12-29T12:16:16.511Z,85.16
2022-12-29T12:17:16.445Z,84.69
2022-12-29T12:18:16.441Z,84.69
2022-12-29T12:19:16.441Z,84.85
2022-12-29T12:20:16.548Z,84.28
2022-12-29T12:21:16.407Z,84.65
2022-12-29T12:22:16.395Z,84.69
2022-12-29T12:23:16.428Z,84.28
2022-12-29T12:24:16.454Z,84.69
2022-12-29T12:25:16.388Z,84.28
2022-12-29T12:26:16.370Z,84.85
2022-12-29T12:27:16.353Z,85.10
2022-12-29T12:28:16.342Z,84.79
2022-12-29T12:29:16.391Z,84.44
2022-12-29T12:30:16.389Z,83.76
2022-12-29T12:31:16.550Z,83.97
2022-12-29T12:32:16.327Z,83.66
2022-12-29T12:33:16.306Z,84.03
2022-12-29T12:34:16.361Z,83.97
2022-12-29T12:35:21.553Z,84.79
2022-12-29T12:36:18.293Z,84.69
2022-12-29T12:37:16.288Z,84.38
2022-12-29T12:38:16.285Z,84.58
2022-12-29T12:39:16.288Z,83.87
2022-12-29T12:40:16.342Z,83.25
2022-12-29T12:41:21.485Z,83.62
2022-12-29T12:42:18.301Z,83.46
2022-12-29T12:43:16.281Z,82.95
2022-12-29T12:44:16.255Z,83.97
2022-12-29T12:45:16.322Z,83.46
2022-12-29T12:46:16.377Z,83.36
2022-12-29T12:47:16.267Z,83.66
2022-12-29T12:48:16.231Z,84.17
2022-12-29T12:49:16.215Z,83.87
2022-12-29T12:50:16.199Z,83.87
2022-12-29T12:51:16.203Z,83.97
2022-12-29T12:52:16.301Z,84.07